Time;durP1;ratioP1;P1;durP2;ratioP2;P2;SDS_P1;SDS_P2;PMS_P1;PMS_P2;Temp;Humidity;BMP_temperature;BMP_pressure;BME280_temperature;BME280_humidity;BME280_pressure;Samples;Min_cycle;Max_cycle;Signal;HPM_P1;HPM_P2
2022/03/24 00:01:49;;;;;;;24.13;17.00;;;20.80;31.80;;;;;;5161526;27;20006;-79
2022/03/24 00:04:15;;;;;;;26.17;18.10;;;20.70;31.80;;;;;;5143042;27;20055;-84
2022/03/24 00:06:41;;;;;;;23.13;17.52;;;20.70;31.80;;;;;;5141996;27;20015;-77
2022/03/24 00:09:07;;;;;;;26.05;17.90;;;20.70;31.80;;;;;;5141898;27;20074;-79
2022/03/24 00:11:34;;;;;;;25.55;18.25;;;20.70;31.80;;;;;;5125540;27;20015;-78
2022/03/24 00:14:00;;;;;;;24.55;18.48;;;20.70;31.90;;;;;;5125951;27;20018;-86
2022/03/24 00:16:26;;;;;;;26.63;19.10;;;20.70;31.90;;;;;;5142231;27;20082;-84
2022/03/24 00:18:52;;;;;;;24.23;18.67;;;20.70;32.50;;;;;;5125007;27;20057;-78
2022/03/24 00:21:18;;;;;;;28.38;19.30;;;20.70;31.90;;;;;;5124732;27;20045;-78
2022/03/24 00:23:44;;;;;;;27.80;20.00;;;20.70;32.00;;;;;;5159452;27;20478;-83
2022/03/24 00:26:10;;;;;;;26.75;19.35;;;20.70;32.00;;;;;;5142606;27;20053;-80
2022/03/24 00:28:36;;;;;;;26.67;18.67;;;20.70;32.00;;;;;;5142383;27;20015;-79
2022/03/24 00:31:05;;;;;;;26.00;18.88;;;20.70;32.10;;;;;;5124740;27;20030;-77
2022/03/24 00:33:32;;;;;;;25.38;19.10;;;20.70;32.10;;;;;;5124855;27;20015;-87
2022/03/24 00:35:57;;;;;;;26.33;19.13;;;20.70;32.10;;;;;;5159820;27;20011;-79
2022/03/24 00:38:23;;;;;;;25.00;18.92;;;20.60;32.10;;;;;;5123952;27;20023;-83
2022/03/24 00:40:49;;;;;;;25.58;18.92;;;20.60;32.10;;;;;;5141608;27;20465;-85
2022/03/24 00:43:15;;;;;;;27.42;19.35;;;20.60;32.10;;;;;;5126766;27;20030;-85
2022/03/24 00:45:41;;;;;;;26.88;19.38;;;20.60;32.10;;;;;;5130069;27;20007;-77
2022/03/24 00:48:08;;;;;;;27.50;19.35;;;20.60;32.20;;;;;;5147163;27;20007;-85
2022/03/24 00:50:35;;;;;;;28.27;19.48;;;20.60;32.10;;;;;;5146725;27;20018;-84
2022/03/24 00:53:02;;;;;;;26.80;19.65;;;20.60;32.20;;;;;;5128791;27;20067;-84
2022/03/24 00:55:28;;;;;;;25.08;18.98;;;20.60;32.20;;;;;;5129028;27;20027;-77
2022/03/24 00:57:55;;;;;;;25.17;19.13;;;20.60;32.20;;;;;;5148760;27;20368;-79
2022/03/24 01:00:25;;;;;;;26.45;19.65;;;20.60;32.20;;;;;;5148608;27;20015;-77
2022/03/24 01:02:54;;;;;;;25.02;19.35;;;20.60;32.30;;;;;;5149643;27;20046;-77
2022/03/24 01:05:24;;;;;;;25.20;19.35;;;20.60;32.30;;;;;;5150341;27;20026;-83
2022/03/24 01:07:50;;;;;;;26.73;18.90;;;20.60;32.30;;;;;;5130967;27;20030;-78
2022/03/24 01:10:17;;;;;;;25.15;18.95;;;20.60;32.30;;;;;;5131665;27;20075;-78
2022/03/24 01:12:43;;;;;;;24.77;19.35;;;20.60;32.30;;;;;;5147422;27;20094;-78
2022/03/24 01:15:10;;;;;;;27.00;19.65;;;20.60;32.30;;;;;;5146383;27;20014;-82
2022/03/24 01:17:36;;;;;;;25.55;19.23;;;20.50;32.30;;;;;;5129263;27;20038;-77
2022/03/24 01:20:05;;;;;;;24.77;18.98;;;20.60;32.40;;;;;;5146660;27;20072;-77
2022/03/24 01:22:32;;;;;;;27.90;19.40;;;20.50;32.30;;;;;;5147187;27;20022;-77
2022/03/24 01:24:59;;;;;;;24.63;18.90;;;20.50;32.30;;;;;;5147559;27;20011;-79
2022/03/24 01:27:26;;;;;;;26.17;19.77;;;20.50;32.30;;;;;;5129709;27;20050;-78
2022/03/24 01:29:54;;;;;;;28.42;20.42;;;20.50;32.40;;;;;;5147642;27;20019;-77
2022/03/24 01:32:20;;;;;;;26.05;19.55;;;20.50;32.40;;;;;;5130369;27;20023;-77
2022/03/24 01:34:46;;;;;;;24.52;18.80;;;20.50;32.40;;;;;;5146403;27;20019;-77
2022/03/24 01:37:13;;;;;;;25.02;19.75;;;20.50;32.40;;;;;;5147171;27;20056;-78
2022/03/24 01:39:39;;;;;;;25.23;19.35;;;20.50;32.40;;;;;;5128857;27;20014;-77
2022/03/24 01:42:06;;;;;;;25.27;18.92;;;20.40;32.40;;;;;;5146560;27;20042;-79
2022/03/24 01:44:32;;;;;;;26.13;19.80;;;20.50;32.40;;;;;;5146081;27;20019;-77
2022/03/24 01:47:06;;;;;;;24.27;19.48;;;20.50;32.40;;;;;;5145962;27;20046;-78
2022/03/24 01:49:34;;;;;;;25.65;19.20;;;20.50;32.40;;;;;;5145322;27;20044;-78
2022/03/24 01:52:00;;;;;;;26.30;20.00;;;20.50;32.40;;;;;;5145008;27;20026;-78
2022/03/24 01:54:29;;;;;;;25.48;19.00;;;20.40;32.30;;;;;;5126903;27;20027;-77
2022/03/24 01:56:55;;;;;;;26.02;19.65;;;20.50;32.40;;;;;;5128275;27;20023;-78
2022/03/24 01:59:30;;;;;;;25.15;19.25;;;20.50;32.40;;;;;;5069116;22;20057;-39
2022/03/24 02:01:57;;;;;;;28.73;19.58;;;20.50;32.40;;;;;;5077777;28;20027;-38
2022/03/24 02:04:23;;;;;;;26.77;19.85;;;20.50;32.40;;;;;;5077472;28;20032;-38
2022/03/24 02:06:51;;;;;;;28.05;19.45;;;20.40;32.40;;;;;;5077150;28;20074;-38
2022/03/24 02:09:17;;;;;;;30.20;20.35;;;20.40;32.40;;;;;;5077204;28;20020;-37
2022/03/24 02:11:43;;;;;;;23.92;18.52;;;20.40;32.50;;;;;;5077316;28;20485;-39
2022/03/24 02:14:09;;;;;;;24.70;19.15;;;20.40;32.40;;;;;;5077545;28;20031;-37
2022/03/24 02:16:38;;;;;;;27.33;19.10;;;20.40;32.40;;;;;;5059604;28;20024;-38
2022/03/24 02:19:13;;;;;;;23.88;18.88;;;20.40;32.40;;;;;;5060047;28;20040;-39
2022/03/24 02:21:42;;;;;;;25.05;19.20;;;20.40;32.40;;;;;;5077798;28;20013;-38
2022/03/24 02:24:09;;;;;;;25.13;19.35;;;20.40;32.40;;;;;;5076611;28;20029;-40
2022/03/24 02:26:35;;;;;;;24.52;19.25;;;20.40;32.40;;;;;;5058740;28;20016;-38
2022/03/24 02:29:06;;;;;;;24.70;19.23;;;20.40;32.40;;;;;;5076470;28;20021;-38
2022/03/24 02:31:37;;;;;;;25.52;18.90;;;20.40;33.00;;;;;;5077287;28;20017;-38
2022/03/24 02:36:52;;;;;;;26.05;19.80;;;20.30;32.40;;;;;;5077911;28;20039;-37
2022/03/24 02:39:18;;;;;;;24.70;19.50;;;20.30;32.40;;;;;;5077271;28;20043;-37
2022/03/24 02:41:51;;;;;;;26.30;19.95;;;20.30;32.40;;;;;;5059962;28;20040;-39
2022/03/24 02:44:17;;;;;;;23.42;19.25;;;20.30;32.40;;;;;;5077770;28;20021;-38
2022/03/24 02:46:47;;;;;;;24.25;19.33;;;20.30;32.40;;;;;;5059105;28;20020;-38
2022/03/24 02:49:16;;;;;;;25.30;19.88;;;20.30;32.40;;;;;;5076938;28;20020;-38
2022/03/24 02:51:42;;;;;;;26.48;20.77;;;20.30;32.40;;;;;;5077072;28;20023;-38
2022/03/24 02:54:09;;;;;;;25.00;19.58;;;20.30;32.40;;;;;;5076325;28;20024;-38
2022/03/24 02:56:36;;;;;;;24.73;20.30;;;20.30;32.30;;;;;;5077110;28;20060;-37
2022/03/24 02:59:04;;;;;;;29.92;22.08;;;20.30;32.40;;;;;;5059308;28;20383;-38
2022/03/24 03:01:30;;;;;;;27.25;20.48;;;20.30;32.40;;;;;;5076578;28;20026;-37
2022/03/24 03:03:56;;;;;;;26.10;20.52;;;20.30;32.40;;;;;;5076732;28;20072;-38
2022/03/24 03:06:23;;;;;;;25.98;20.13;;;20.30;32.30;;;;;;5075966;28;20501;-38
2022/03/24 03:08:51;;;;;;;28.52;20.60;;;20.30;32.40;;;;;;5058501;28;20140;-38
2022/03/24 03:11:20;;;;;;;25.85;19.27;;;20.30;32.40;;;;;;5058641;28;20023;-38
2022/03/24 03:13:47;;;;;;;24.17;19.55;;;20.20;32.30;;;;;;5076008;28;20020;-38
2022/03/24 03:16:13;;;;;;;25.73;19.63;;;20.30;32.30;;;;;;5075458;28;20009;-40
2022/03/24 03:18:43;;;;;;;25.42;21.02;;;20.30;32.30;;;;;;5075965;28;20020;-37
2022/03/24 03:21:09;;;;;;;25.05;20.13;;;20.30;32.30;;;;;;5076329;28;20050;-39
2022/03/24 03:23:38;;;;;;;27.08;20.42;;;20.20;32.30;;;;;;5076637;28;20027;-38
2022/03/24 03:26:08;;;;;;;25.85;20.70;;;20.30;32.40;;;;;;5076970;28;20020;-38
2022/03/24 03:28:34;;;;;;;28.27;20.83;;;20.20;32.30;;;;;;5076586;28;20012;-38
2022/03/24 03:31:00;;;;;;;26.67;21.38;;;20.30;32.40;;;;;;5076578;28;20390;-39
2022/03/24 03:33:26;;;;;;;26.27;21.25;;;20.30;32.40;;;;;;5075918;28;20512;-39
2022/03/24 03:35:52;;;;;;;26.38;21.95;;;20.20;32.30;;;;;;5075575;28;20570;-39
2022/03/24 03:38:19;;;;;;;26.17;21.75;;;20.20;32.40;;;;;;5058046;28;20462;-40
2022/03/24 03:40:45;;;;;;;26.77;20.80;;;20.20;32.40;;;;;;5075880;28;20020;-38
2022/03/24 03:43:11;;;;;;;26.55;22.23;;;20.20;32.30;;;;;;5075892;28;20016;-38
2022/03/24 03:45:38;;;;;;;28.88;22.13;;;20.20;32.30;;;;;;5075796;28;20032;-39
2022/03/24 03:48:05;;;;;;;25.02;21.13;;;20.20;32.30;;;;;;5075769;28;20032;-37
2022/03/24 03:50:31;;;;;;;26.85;20.58;;;20.20;32.30;;;;;;5075437;28;20474;-37
2022/03/24 03:52:57;;;;;;;25.75;21.02;;;20.20;32.40;;;;;;5075826;28;20099;-37
2022/03/24 03:55:22;;;;;;;25.67;20.88;;;20.20;32.40;;;;;;5075473;28;20107;-37
2022/03/24 03:57:49;;;;;;;27.25;21.98;;;20.20;32.40;;;;;;5076196;28;20052;-37
2022/03/24 04:03:03;;;;;;;25.50;20.92;;;20.20;32.40;;;;;;5061548;28;20031;-37
2022/03/24 04:05:30;;;;;;;26.02;21.55;;;20.20;32.40;;;;;;5076842;28;20051;-39
2022/03/24 04:07:56;;;;;;;26.75;21.63;;;20.20;32.30;;;;;;5058648;28;20032;-38
2022/03/24 04:10:22;;;;;;;29.85;21.77;;;20.20;32.40;;;;;;5058112;28;20032;-38
2022/03/24 04:12:50;;;;;;;26.15;21.73;;;20.20;32.40;;;;;;5075719;28;20086;-38
2022/03/24 04:15:17;;;;;;;24.50;20.77;;;20.10;32.40;;;;;;5076073;28;20017;-37
2022/03/24 04:17:44;;;;;;;27.70;21.77;;;20.20;32.40;;;;;;5076905;28;20077;-37
2022/03/24 04:20:12;;;;;;;26.95;21.85;;;20.20;32.50;;;;;;5076535;28;20040;-38
2022/03/24 04:22:37;;;;;;;29.48;22.58;;;20.10;32.50;;;;;;5058073;28;20074;-38
2022/03/24 04:25:05;;;;;;;29.00;22.48;;;20.20;32.50;;;;;;5056717;28;20029;-38
2022/03/24 04:27:31;;;;;;;26.33;21.92;;;20.20;32.50;;;;;;5074754;28;20043;-38
2022/03/24 04:29:57;;;;;;;26.90;21.05;;;20.20;32.50;;;;;;5074590;28;20013;-37
2022/03/24 04:32:24;;;;;;;29.23;22.52;;;20.10;32.50;;;;;;5056716;28;20017;-37
2022/03/24 04:34:50;;;;;;;28.25;21.40;;;20.10;32.50;;;;;;5074430;28;20032;-37
2022/03/24 04:37:16;;;;;;;28.50;22.10;;;20.10;32.50;;;;;;5075399;28;20025;-38
2022/03/24 04:39:42;;;;;;;28.00;21.73;;;20.10;32.50;;;;;;5076918;28;20017;-39
2022/03/24 04:42:08;;;;;;;27.20;21.77;;;20.10;32.50;;;;;;5076077;28;20517;-37
2022/03/24 04:44:34;;;;;;;28.35;22.08;;;20.10;32.60;;;;;;5073936;28;20479;-37
2022/03/24 04:47:00;;;;;;;27.45;21.23;;;20.10;32.50;;;;;;5074759;28;20021;-39
2022/03/24 04:49:26;;;;;;;24.70;20.42;;;20.00;32.50;;;;;;5074684;28;20475;-38
2022/03/24 04:51:53;;;;;;;28.70;21.73;;;20.10;32.60;;;;;;5040682;28;20027;-37
2022/03/24 04:54:19;;;;;;;29.92;21.80;;;20.10;32.60;;;;;;5074581;28;20029;-35
2022/03/24 04:56:45;;;;;;;25.63;21.70;;;20.10;32.60;;;;;;5057022;28;20016;-36
2022/03/24 04:59:11;;;;;;;27.52;21.77;;;20.10;32.70;;;;;;5073996;28;20044;-36
2022/03/24 05:01:37;;;;;;;27.02;22.38;;;20.00;32.70;;;;;;5075102;28;20095;-36
2022/03/24 05:04:04;;;;;;;27.25;21.85;;;20.00;32.70;;;;;;5076168;28;20052;-37
2022/03/24 05:06:31;;;;;;;28.95;22.85;;;20.00;32.70;;;;;;5076618;28;20016;-37
2022/03/24 05:08:57;;;;;;;27.23;21.80;;;20.00;32.70;;;;;;5076273;28;20016;-36
2022/03/24 05:11:23;;;;;;;26.08;21.80;;;20.00;32.70;;;;;;5076286;28;20050;-37
2022/03/24 05:13:50;;;;;;;27.42;21.70;;;20.00;32.80;;;;;;5075980;28;20066;-37
2022/03/24 05:16:16;;;;;;;28.23;22.60;;;20.00;32.80;;;;;;5075019;28;20013;-38
2022/03/24 05:18:42;;;;;;;26.83;21.17;;;20.00;32.80;;;;;;5075835;28;20017;-36
2022/03/24 05:21:09;;;;;;;27.38;21.25;;;20.00;32.70;;;;;;5074603;28;20017;-35
2022/03/24 05:23:34;;;;;;;24.77;20.27;;;20.00;32.70;;;;;;5073727;28;20082;-36
2022/03/24 05:26:01;;;;;;;27.27;21.55;;;20.10;32.90;;;;;;5073400;28;20013;-36
2022/03/24 05:28:26;;;;;;;25.08;20.67;;;20.20;32.60;;;;;;5057235;28;20035;-36
2022/03/24 05:30:52;;;;;;;28.08;21.38;;;20.20;32.40;;;;;;5079142;28;20017;-36
2022/03/24 05:33:18;;;;;;;26.88;21.10;;;20.40;32.00;;;;;;5079211;28;20008;-35
2022/03/24 05:35:44;;;;;;;26.38;21.92;;;20.60;31.90;;;;;;5078849;28;20507;-35
2022/03/24 05:38:10;;;;;;;27.02;20.98;;;20.70;31.60;;;;;;5077973;28;20028;-38
2022/03/24 05:40:35;;;;;;;26.13;20.90;;;20.80;31.40;;;;;;5060801;28;20016;-36
2022/03/24 05:43:02;;;;;;;27.60;21.02;;;20.90;31.30;;;;;;5060607;28;20017;-37
2022/03/24 05:45:28;;;;;;;25.85;20.83;;;20.90;31.10;;;;;;5077715;28;20035;-35
2022/03/24 05:47:53;;;;;;;23.90;20.23;;;21.10;31.00;;;;;;5059986;28;20021;-36
2022/03/24 05:50:19;;;;;;;25.90;21.35;;;21.20;30.70;;;;;;5077979;28;20027;-35
2022/03/24 05:52:49;;;;;;;26.17;20.25;;;21.30;30.60;;;;;;5077819;28;20020;-36
2022/03/24 05:55:16;;;;;;;27.33;21.20;;;21.40;30.40;;;;;;5077689;28;20063;-36
2022/03/24 05:57:45;;;;;;;27.45;20.48;;;21.50;30.20;;;;;;5077889;28;20090;-37
2022/03/24 06:00:12;;;;;;;24.35;20.42;;;21.60;30.00;;;;;;5078408;28;20096;-36
2022/03/24 06:02:37;;;;;;;27.55;21.60;;;21.70;30.00;;;;;;5077619;28;20012;-37
2022/03/24 06:05:05;;;;;;;26.45;20.33;;;21.90;29.80;;;;;;5078312;28;20016;-37
2022/03/24 06:07:33;;;;;;;27.20;20.52;;;22.00;29.90;;;;;;5078527;28;20025;-36
2022/03/24 06:09:59;;;;;;;29.17;22.05;;;22.10;29.50;;;;;;5060845;28;20017;-37
2022/03/24 06:12:26;;;;;;;27.90;22.08;;;22.40;29.20;;;;;;5077634;28;20046;-36
2022/03/24 06:14:52;;;;;;;27.40;22.88;;;22.60;28.80;;;;;;5077847;28;20028;-36
2022/03/24 06:17:21;;;;;;;29.92;23.13;;;22.90;28.60;;;;;;5077287;28;20074;-36
2022/03/24 06:19:47;;;;;;;28.35;22.05;;;23.00;28.20;;;;;;5077692;28;20024;-36
2022/03/24 06:22:14;;;;;;;26.00;21.38;;;23.20;28.10;;;;;;5077202;28;20020;-36
2022/03/24 06:24:40;;;;;;;26.60;21.88;;;23.30;27.90;;;;;;5077805;28;20036;-36
2022/03/24 06:27:06;;;;;;;28.65;22.05;;;23.30;27.90;;;;;;5076625;28;20038;-38
2022/03/24 06:29:31;;;;;;;27.83;21.33;;;23.30;27.90;;;;;;5076770;28;20020;-38
2022/03/24 06:31:57;;;;;;;31.67;22.88;;;23.00;28.10;;;;;;5075697;28;20020;-37
2022/03/24 06:34:23;;;;;;;27.90;23.10;;;22.80;28.30;;;;;;5076014;28;20025;-37
2022/03/24 06:36:50;;;;;;;28.08;23.10;;;22.70;28.40;;;;;;5058573;28;20021;-39
2022/03/24 06:39:16;;;;;;;32.05;24.10;;;22.60;28.60;;;;;;5076474;28;20095;-38
2022/03/24 06:41:42;;;;;;;30.40;23.38;;;22.50;28.60;;;;;;5058376;28;20009;-39
2022/03/24 06:44:09;;;;;;;33.42;26.08;;;22.40;28.80;;;;;;5076988;28;20080;-38
2022/03/24 06:46:35;;;;;;;34.80;26.45;;;22.30;28.60;;;;;;5059468;28;20023;-38
2022/03/24 06:49:03;;;;;;;36.20;26.73;;;22.20;28.80;;;;;;5059837;28;20024;-38
2022/03/24 06:51:29;;;;;;;33.63;25.15;;;22.10;28.80;;;;;;5075747;28;20478;-37
2022/03/24 06:53:55;;;;;;;34.42;25.70;;;22.20;28.70;;;;;;5075984;28;20028;-38
2022/03/24 06:56:21;;;;;;;32.15;25.40;;;22.40;28.50;;;;;;5076198;28;20013;-37
2022/03/24 06:58:47;;;;;;;32.88;25.23;;;22.50;28.40;;;;;;5058360;28;20049;-37
2022/03/24 07:01:14;;;;;;;36.50;24.35;;;22.60;28.30;;;;;;5057781;28;20036;-39
2022/03/24 07:06:14;;;;;;;35.72;25.85;;;22.70;28.10;;;;;;5116649;22;20507;-88
2022/03/24 07:08:46;;;;;;;32.03;24.45;;;22.80;28.00;;;;;;5048583;28;20050;-90
2022/03/24 07:11:14;;;;;;;33.00;25.98;;;22.90;28.00;;;;;;5047428;28;20104;-88
2022/03/24 07:13:42;;;;;;;33.10;25.20;;;23.00;27.70;;;;;;5064408;28;20035;-90
2022/03/24 07:16:11;;;;;;;;;;;23.10;27.70;;;;;;5082012;28;20044;-88
2022/03/24 07:18:38;;;;;;;34.75;25.45;;;23.10;27.60;;;;;;5067826;28;19915;-89
2022/03/24 07:21:10;;;;;;;;;;;23.20;27.50;;;;;;5069413;28;20042;-89
2022/03/24 07:23:46;;;;;;;39.37;23.73;;;23.30;27.50;;;;;;5047380;28;19964;-89
2022/03/24 07:26:12;;;;;;;43.38;25.63;;;23.30;27.70;;;;;;5062442;28;20262;-89
2022/03/24 07:28:44;;;;;;;51.08;26.98;;;23.20;28.30;;;;;;5044696;28;20032;-94
2022/03/24 07:31:13;;;;;;;57.08;28.10;;;23.10;29.60;;;;;;5027727;28;20036;-87
2022/03/24 07:33:44;;;;;;;53.83;28.15;;;23.10;30.80;;;;;;5046566;28;20039;-87
2022/03/24 07:36:13;;;;;;;53.65;29.02;;;23.10;31.10;;;;;;5026511;28;20016;-90
2022/03/24 07:38:39;;;;;;;61.30;29.67;;;23.10;31.20;;;;;;5027579;28;20115;-86
2022/03/24 07:41:06;;;;;;;54.17;29.23;;;23.20;31.00;;;;;;5044849;28;20029;-91
2022/03/24 07:43:32;;;;;;;50.60;29.75;;;23.30;30.80;;;;;;5043358;28;20056;-91
2022/03/24 07:45:58;;;;;;;46.10;27.80;;;23.30;30.70;;;;;;5028231;28;20036;-94
2022/03/24 07:48:27;;;;;;;44.33;27.95;;;23.40;30.70;;;;;;5059851;28;20021;-88
2022/03/24 07:50:54;;;;;;;50.20;29.80;;;23.40;30.60;;;;;;5028282;28;20043;-88
2022/03/24 07:53:43;;;;;;;50.55;29.70;;;23.50;30.40;;;;;;5061407;28;20031;-85
2022/03/24 07:56:09;;;;;;;43.75;30.35;;;23.50;30.40;;;;;;5042927;28;20084;-88
2022/03/24 07:58:36;;;;;;;47.90;30.17;;;23.60;30.30;;;;;;5027813;28;20059;-88
2022/03/24 08:01:02;;;;;;;51.00;30.10;;;23.60;30.10;;;;;;5060129;28;20031;-89
2022/03/24 08:03:28;;;;;;;45.28;29.75;;;23.60;30.00;;;;;;5044039;28;20024;-88
2022/03/24 08:05:55;;;;;;;46.38;30.05;;;23.70;30.00;;;;;;5078692;28;20017;-89
2022/03/24 08:08:21;;;;;;;40.80;28.80;;;23.70;29.90;;;;;;5040908;28;20041;-87
2022/03/24 08:10:47;;;;;;;43.17;29.95;;;23.80;29.80;;;;;;5060877;28;20067;-91
2022/03/24 08:13:18;;;;;;;43.70;30.25;;;23.80;29.70;;;;;;5061629;28;20069;-84
2022/03/24 08:15:45;;;;;;;41.20;30.15;;;23.80;29.70;;;;;;5060970;28;20016;-87
2022/03/24 08:18:11;;;;;;;43.83;30.35;;;23.80;29.80;;;;;;5051343;28;20056;-83
2022/03/24 08:20:42;;;;;;;41.22;28.60;;;23.70;29.90;;;;;;5060255;28;20024;-85
2022/03/24 08:23:08;;;;;;;42.97;29.20;;;23.70;29.90;;;;;;5064746;28;20108;-87
2022/03/24 08:25:38;;;;;;;40.25;27.88;;;23.70;29.80;;;;;;5046244;28;20119;-86
2022/03/24 08:28:05;;;;;;;42.60;28.92;;;23.60;29.70;;;;;;5042314;28;20475;-87
2022/03/24 08:30:31;;;;;;;47.72;30.23;;;23.60;29.70;;;;;;5044443;28;20012;-86
2022/03/24 08:33:02;;;;;;;46.75;29.50;;;23.70;29.70;;;;;;5041971;28;20020;-84
2022/03/24 08:35:30;;;;;;;53.92;29.90;;;23.70;29.50;;;;;;5060527;28;20032;-86
2022/03/24 08:37:59;;;;;;;51.85;29.35;;;23.70;29.40;;;;;;5060583;28;20069;-86
2022/03/24 08:40:25;;;;;;;51.40;29.65;;;23.70;29.30;;;;;;5042192;28;20032;-88
2022/03/24 08:42:51;;;;;;;51.15;30.20;;;23.80;29.20;;;;;;5041361;28;20016;-85
2022/03/24 08:45:17;;;;;;;60.78;31.88;;;23.80;29.20;;;;;;5058356;28;20044;-89
2022/03/24 08:47:43;;;;;;;54.83;31.67;;;23.60;29.20;;;;;;5057631;28;20107;-86
2022/03/24 08:50:10;;;;;;;50.35;32.10;;;23.60;29.20;;;;;;5041341;28;20023;-85
2022/03/24 08:52:35;;;;;;;53.78;29.83;;;23.80;28.70;;;;;;5041433;28;20074;-86
2022/03/24 08:55:05;;;;;;;49.90;30.92;;;24.00;28.50;;;;;;5058740;28;20042;-79
2022/03/24 08:57:31;;;;;;;47.97;31.67;;;24.00;28.40;;;;;;5040922;28;20108;-78
2022/03/24 09:00:15;;;;;;;47.53;29.45;;;24.10;28.00;;;;;;5057974;28;20067;-79
2022/03/24 09:02:45;;;;;;;47.45;30.38;;;24.30;27.90;;;;;;5043069;28;20033;-80
2022/03/24 09:05:12;;;;;;;43.97;29.17;;;24.40;27.70;;;;;;5065274;28;20089;-80
2022/03/24 09:07:38;;;;;;;47.95;28.05;;;24.50;28.00;;;;;;5060903;28;20072;-80
2022/03/24 09:10:06;;;;;;;42.38;27.15;;;24.60;27.60;;;;;;5063468;28;20016;-79
2022/03/24 09:12:40;;;;;;;41.88;27.75;;;24.70;27.50;;;;;;5044031;28;20045;-82
2022/03/24 09:15:10;;;;;;;44.30;26.67;;;24.80;27.50;;;;;;5061673;28;20025;-83
2022/03/24 09:17:39;;;;;;;44.40;26.27;;;24.90;27.40;;;;;;5059067;28;20036;-80
2022/03/24 09:20:11;;;;;;;43.13;26.17;;;25.00;27.30;;;;;;5044987;28;20036;-81
2022/03/24 09:22:41;;;;;;;43.17;25.85;;;25.10;27.40;;;;;;5061753;28;20380;-82
2022/03/24 09:25:07;;;;;;;;;;;24.90;27.70;;;;;;5045289;28;20028;-81
2022/03/24 09:27:34;;;;;;;65.25;27.95;;;24.60;28.70;;;;;;5044301;28;19901;-78
2022/03/24 09:30:01;;;;;;;51.38;26.40;;;24.40;29.70;;;;;;5045885;28;20029;-80
2022/03/24 09:32:27;;;;;;;50.47;26.27;;;24.10;29.60;;;;;;5062615;28;20021;-79
2022/03/24 09:34:54;;;;;;;48.97;27.35;;;23.90;29.80;;;;;;5060169;28;20025;-80
2022/03/24 09:37:22;;;;;;;51.63;27.48;;;23.80;30.30;;;;;;5061807;28;20021;-81
2022/03/24 09:39:51;;;;;;;49.90;26.92;;;23.70;30.00;;;;;;5044218;28;20036;-82
2022/03/24 09:42:18;;;;;;;45.58;25.10;;;23.60;30.30;;;;;;5063539;28;20042;-79
2022/03/24 09:44:45;;;;;;;52.00;28.38;;;23.60;30.00;;;;;;5062956;28;20041;-81
2022/03/24 09:47:12;;;;;;;51.97;27.98;;;23.70;29.90;;;;;;5061726;28;20033;-79
2022/03/24 09:49:41;;;;;;;50.95;26.50;;;23.70;29.90;;;;;;5045265;28;20044;-80
2022/03/24 09:52:10;;;;;;;50.35;28.02;;;23.60;29.80;;;;;;5060425;28;20554;-81
2022/03/24 09:54:36;;;;;;;52.50;27.00;;;23.70;29.70;;;;;;5044548;28;20040;-80
2022/03/24 09:57:08;;;;;;;50.45;26.83;;;23.70;29.70;;;;;;5060943;28;20100;-80
2022/03/24 09:59:37;;;;;;;49.10;26.90;;;23.40;29.80;;;;;;5043081;28;20021;-82
2022/03/24 10:02:09;;;;;;;46.50;25.88;;;23.30;30.00;;;;;;5061991;28;20017;-80
2022/03/24 10:04:52;;;;;;;45.67;25.67;;;23.30;29.90;;;;;;5077760;28;20020;-82
2022/03/24 10:07:25;;;;;;;42.40;25.38;;;23.30;29.80;;;;;;5048806;28;20600;-81
2022/03/24 10:09:55;;;;;;;47.05;25.27;;;23.40;29.70;;;;;;5048540;28;20021;-85
2022/03/24 10:12:26;;;;;;;45.63;24.60;;;23.50;29.70;;;;;;5045762;28;20116;-83
2022/03/24 10:15:08;;;;;;;52.95;24.95;;;23.60;29.30;;;;;;5044495;28;20099;-82
2022/03/24 10:17:38;;;;;;;43.45;22.95;;;23.80;29.00;;;;;;5043964;28;20102;-82
2022/03/24 10:20:15;;;;;;;43.78;23.08;;;23.80;29.10;;;;;;5045100;28;20455;-84
2022/03/24 10:22:57;;;;;;;45.47;22.98;;;23.40;29.30;;;;;;5062811;28;20020;-81
2022/03/24 10:25:25;;;;;;;41.20;21.80;;;22.80;30.00;;;;;;5063012;28;20017;-82
2022/03/24 10:28:05;;;;;;;46.00;21.08;;;22.90;28.50;;;;;;5061136;28;20497;-83
2022/03/24 10:30:53;;;;;;;44.58;20.15;;;22.50;29.00;;;;;;5044425;28;20057;-81
2022/03/24 10:33:33;;;;;;;36.10;19.60;;;22.50;28.40;;;;;;5062254;28;20103;-79
2022/03/24 10:36:10;;;;;;;32.92;17.25;;;22.70;27.90;;;;;;5082202;28;20021;-82
2022/03/24 10:38:39;;;;;;;27.90;16.58;;;22.10;28.30;;;;;;5061771;28;20460;-81
2022/03/24 10:41:15;;;;;;;32.08;16.25;;;22.10;27.50;;;;;;5045785;28;20036;-81
2022/03/24 10:43:51;;;;;;;33.83;16.30;;;22.00;26.90;;;;;;5063287;28;20536;-81
2022/03/24 10:46:35;;;;;;;33.53;17.38;;;22.10;27.20;;;;;;5063193;28;20394;-86
2022/03/24 10:49:15;;;;;;;24.02;15.77;;;22.20;26.80;;;;;;5061192;28;20028;-82
2022/03/24 10:51:42;;;;;;;;;;;22.10;26.30;;;;;;5079091;28;20535;-81
2022/03/24 10:54:28;;;;;;;26.38;15.65;;;21.90;26.90;;;;;;5079362;28;19908;-82
2022/03/24 10:57:12;;;;;;;27.35;15.23;;;22.20;25.90;;;;;;5080932;28;20081;-82
2022/03/24 10:59:41;;;;;;;23.65;14.43;;;22.10;26.00;;;;;;5061429;28;20044;-82
2022/03/24 11:02:08;;;;;;;30.85;15.40;;;22.00;26.40;;;;;;5043590;28;20016;-82
2022/03/24 11:04:34;;;;;;;27.13;15.30;;;21.90;26.40;;;;;;5043196;28;20387;-81
2022/03/24 11:07:00;;;;;;;26.25;14.05;;;21.90;26.60;;;;;;5042586;28;20051;-81
2022/03/24 11:09:33;;;;;;;32.05;14.30;;;21.50;26.70;;;;;;5059522;28;20032;-82
2022/03/24 11:12:28;;;;;;;26.50;14.27;;;21.20;27.20;;;;;;5042673;28;20021;-80
2022/03/24 11:14:57;;;;;;;22.67;13.13;;;21.50;27.10;;;;;;5059487;28;20028;-80
2022/03/24 11:17:24;;;;;;;28.10;16.00;;;21.60;27.00;;;;;;5059639;28;20046;-82
2022/03/24 11:20:13;;;;;;;25.65;14.13;;;21.90;25.50;;;;;;5026963;28;20028;-82
2022/03/24 11:22:59;;;;;;;24.80;14.90;;;21.70;25.90;;;;;;5040153;28;20040;-81
2022/03/24 11:25:26;;;;;;;19.05;13.35;;;21.70;25.70;;;;;;5059681;28;20028;-80
2022/03/24 11:27:56;;;;;;;27.90;13.88;;;21.40;26.20;;;;;;5059514;28;20020;-80
2022/03/24 11:30:22;;;;;;;24.80;13.27;;;21.80;25.50;;;;;;5059649;28;20024;-80
2022/03/24 11:32:52;;;;;;;22.77;12.73;;;22.30;25.00;;;;;;5058794;28;20024;-79
2022/03/24 11:35:18;;;;;;;21.15;12.32;;;22.70;24.70;;;;;;5042977;28;20032;-84
2022/03/24 11:37:56;;;;;;;21.42;12.95;;;23.00;24.40;;;;;;5063449;28;20025;-83
2022/03/24 11:40:26;;;;;;;22.65;12.00;;;23.20;24.30;;;;;;5062714;28;20009;-81
2022/03/24 11:43:05;;;;;;;18.85;11.80;;;23.40;24.20;;;;;;5028352;28;20025;-81
2022/03/24 11:45:52;;;;;;;21.83;10.70;;;23.60;24.20;;;;;;5062081;28;20039;-82
2022/03/24 11:48:30;;;;;;;17.77;11.07;;;23.60;24.10;;;;;;5065646;28;20031;-85
2022/03/24 11:50:56;;;;;;;26.63;10.63;;;23.40;24.00;;;;;;5062391;28;20132;-85
2022/03/24 11:53:25;;;;;;;20.42;11.63;;;23.30;24.40;;;;;;5046450;28;20068;-84
2022/03/24 11:56:10;;;;;;;20.63;11.47;;;23.30;24.70;;;;;;5078778;28;20020;-79
2022/03/24 11:58:38;;;;;;;28.15;13.38;;;23.30;25.50;;;;;;5044595;28;20027;-77
2022/03/24 12:01:19;;;;;;;34.28;13.82;;;23.30;25.90;;;;;;5045454;28;20025;-80
2022/03/24 12:04:10;;;;;;;38.33;13.05;;;23.30;26.20;;;;;;5059824;28;20013;-80
2022/03/24 12:09:38;;;;;;;39.00;13.88;;;23.30;26.40;;;;;;5080070;28;20039;-80
2022/03/24 12:12:04;;;;;;;35.10;13.63;;;23.20;26.60;;;;;;5031004;28;20032;-77
2022/03/24 12:14:30;;;;;;;34.15;14.20;;;23.10;26.30;;;;;;5063962;28;20020;-79
2022/03/24 12:16:56;;;;;;;37.40;15.18;;;23.10;26.30;;;;;;5062418;28;20192;-77
2022/03/24 12:19:49;;;;;;;27.23;13.45;;;23.20;26.40;;;;;;5045232;28;20005;-80
2022/03/24 12:22:32;;;;;;;28.15;13.63;;;23.20;26.40;;;;;;5032860;28;20039;-77
2022/03/24 12:25:00;;;;;;;34.85;13.63;;;23.10;26.60;;;;;;5082140;28;20021;-80
2022/03/24 12:27:27;;;;;;;27.80;13.73;;;23.10;26.70;;;;;;5071313;28;20054;-79
2022/03/24 12:30:20;;;;;;;24.33;13.55;;;23.10;26.30;;;;;;5056434;28;20030;-80
2022/03/24 12:33:08;;;;;;;25.20;12.70;;;23.10;26.40;;;;;;5068583;28;20081;-80
2022/03/24 12:35:42;;;;;;;26.65;12.63;;;23.10;26.40;;;;;;5045297;28;20032;-83
2022/03/24 12:38:31;;;;;;;24.63;11.98;;;22.90;26.70;;;;;;5050786;28;20031;-82
2022/03/24 12:41:06;;;;;;;27.13;13.98;;;22.90;26.80;;;;;;5066325;28;20020;-78
2022/03/24 12:43:45;;;;;;;20.00;12.15;;;22.90;26.20;;;;;;5063584;28;20103;-84
2022/03/24 12:46:22;;;;;;;26.00;12.27;;;22.90;26.10;;;;;;5031359;28;20020;-83
2022/03/24 12:48:48;;;;;;;19.50;11.80;;;23.00;25.90;;;;;;5046065;28;20028;-79